createdAt,value
2023-04-26T00:00:46.550Z,31.39
2023-04-26T00:01:46.568Z,31.45
2023-04-26T00:02:46.691Z,31.48
2023-04-26T00:03:46.950Z,31.46
2023-04-26T00:04:46.856Z,31.52
2023-04-26T00:05:46.797Z,31.53
2023-04-26T00:06:46.738Z,31.54
2023-04-26T00:07:46.748Z,31.56
2023-04-26T00:08:46.774Z,31.60
2023-04-26T00:09:46.816Z,31.57
2023-04-26T00:10:46.864Z,31.53
2023-04-26T00:11:46.889Z,31.52
2023-04-26T00:12:46.938Z,31.56
2023-04-26T00:13:46.992Z,31.57
2023-04-26T00:14:47.003Z,31.51
2023-04-26T00:15:47.033Z,31.51
2023-04-26T00:16:47.243Z,31.64
2023-04-26T00:17:47.188Z,31.63
2023-04-26T00:18:47.155Z,31.60
2023-04-26T00:19:47.272Z,31.58
2023-04-26T00:20:47.248Z,31.67
2023-04-26T00:21:47.280Z,31.71
2023-04-26T00:22:47.328Z,31.71
2023-04-26T00:23:47.368Z,31.78
2023-04-26T00:24:47.416Z,31.84
2023-04-26T00:25:47.455Z,31.82
2023-04-26T00:26:47.485Z,31.82
2023-04-26T00:27:47.513Z,31.86
2023-04-26T00:28:47.567Z,31.86
2023-04-26T00:29:47.627Z,31.87
2023-04-26T00:30:47.687Z,31.86
2023-04-26T00:31:47.728Z,31.84
2023-04-26T00:32:47.796Z,31.85
2023-04-26T00:33:47.768Z,31.84
2023-04-26T00:34:47.840Z,31.88
2023-04-26T00:35:47.867Z,31.88
2023-04-26T00:36:47.896Z,31.91
2023-04-26T00:37:47.932Z,31.97
2023-04-26T00:38:47.986Z,32.04
2023-04-26T00:39:48.022Z,32.04
2023-04-26T00:40:48.054Z,32.11
2023-04-26T00:41:48.103Z,32.08
2023-04-26T00:42:48.101Z,32.18
2023-04-26T00:43:48.171Z,32.21
2023-04-26T00:44:48.222Z,32.24
2023-04-26T00:45:48.335Z,32.24
2023-04-26T00:46:48.295Z,32.23
2023-04-26T00:47:48.356Z,32.24
2023-04-26T00:48:48.362Z,32.29
2023-04-26T00:49:48.446Z,32.32
2023-04-26T00:50:48.492Z,32.38
2023-04-26T00:51:48.514Z,32.44
2023-04-26T00:52:48.569Z,32.46
2023-04-26T00:53:48.589Z,32.52
2023-04-26T00:54:48.623Z,32.53
2023-04-26T00:55:48.685Z,32.59
2023-04-26T00:56:48.729Z,32.56
2023-04-26T00:57:48.739Z,32.62
2023-04-26T00:58:48.785Z,32.69
2023-04-26T00:59:48.828Z,32.67
2023-04-26T01:00:48.872Z,32.71
2023-04-26T01:01:48.928Z,32.84
2023-04-26T01:02:49.093Z,32.80
2023-04-26T01:03:49.143Z,32.88
2023-04-26T01:04:49.049Z,32.94
2023-04-26T01:05:49.105Z,32.87
2023-04-26T01:06:49.126Z,32.85
2023-04-26T01:07:49.179Z,32.93
2023-04-26T01:08:49.367Z,32.93
2023-04-26T01:09:49.281Z,33.01
2023-04-26T01:10:49.332Z,33.06
2023-04-26T01:11:49.405Z,33.04
2023-04-26T01:12:49.413Z,33.06
2023-04-26T01:13:49.484Z,33.03
2023-04-26T01:14:49.542Z,33.09
2023-04-26T01:15:49.598Z,33.11
2023-04-26T01:16:49.716Z,33.18
2023-04-26T01:17:49.728Z,33.13
2023-04-26T01:18:49.815Z,33.13
2023-04-26T01:19:49.800Z,33.13
2023-04-26T01:20:49.856Z,33.12
2023-04-26T01:21:49.921Z,33.20
2023-04-26T01:22:49.938Z,33.18
2023-04-26T01:23:50.041Z,33.22
2023-04-26T01:24:50.098Z,33.22
2023-04-26T01:25:50.142Z,33.24
2023-04-26T01:26:50.201Z,33.33
2023-04-26T01:27:50.275Z,33.40
2023-04-26T01:28:50.493Z,33.34
2023-04-26T01:29:50.325Z,33.31
2023-04-26T01:30:50.447Z,33.35
2023-04-26T01:31:50.454Z,33.35
2023-04-26T01:32:50.563Z,33.26
2023-04-26T01:33:50.592Z,33.17
2023-04-26T01:34:50.637Z,33.16
2023-04-26T01:35:50.706Z,33.13
2023-04-26T01:36:50.751Z,33.03
2023-04-26T01:37:50.794Z,32.98
2023-04-26T01:38:50.999Z,32.95
2023-04-26T01:39:50.912Z,32.94
2023-04-26T01:40:51.008Z,32.88
2023-04-26T01:41:51.020Z,32.81
2023-04-26T01:42:51.088Z,32.77
2023-04-26T01:43:51.135Z,32.78
2023-04-26T01:44:51.256Z,32.82
2023-04-26T01:45:51.296Z,32.77
2023-04-26T01:46:51.386Z,32.74
2023-04-26T01:47:51.405Z,32.66
2023-04-26T01:48:51.592Z,32.66
2023-04-26T01:49:51.526Z,32.66
2023-04-26T01:50:51.543Z,32.64
2023-04-26T01:51:51.620Z,32.67
2023-04-26T01:52:51.693Z,32.73
2023-04-26T01:53:51.740Z,32.71
2023-04-26T01:54:51.822Z,32.67
2023-04-26T01:55:51.860Z,32.68
2023-04-26T01:56:51.916Z,32.66
2023-04-26T01:57:51.966Z,32.67
2023-04-26T01:58:52.243Z,32.75
2023-04-26T01:59:52.116Z,32.71
2023-04-26T02:00:52.182Z,32.68
2023-04-26T02:01:52.281Z,32.73
2023-04-26T02:02:52.346Z,32.78
2023-04-26T02:03:52.333Z,32.80
2023-04-26T02:04:52.508Z,32.78
2023-04-26T02:05:52.490Z,32.75
2023-04-26T02:06:52.510Z,32.75
2023-04-26T02:07:52.588Z,32.67
2023-04-26T02:08:52.881Z,32.64
2023-04-26T02:09:52.703Z,32.65
2023-04-26T02:10:52.771Z,32.61
2023-04-26T02:11:52.799Z,32.56
2023-04-26T02:12:52.877Z,32.61
2023-04-26T02:13:52.961Z,32.54
2023-04-26T02:14:53.013Z,32.57
2023-04-26T02:15:53.119Z,32.57
2023-04-26T02:16:53.127Z,32.64
2023-04-26T02:17:53.196Z,32.61
2023-04-26T02:18:53.794Z,32.69
2023-04-26T02:19:53.298Z,32.71
2023-04-26T02:20:53.381Z,32.71
2023-04-26T02:21:53.434Z,32.78
2023-04-26T02:22:53.486Z,32.77
2023-04-26T02:23:53.541Z,32.83
2023-04-26T02:24:53.601Z,32.80
2023-04-26T02:25:53.687Z,32.89
2023-04-26T02:26:53.732Z,32.91
2023-04-26T02:27:53.753Z,32.88
2023-04-26T02:28:53.991Z,32.89
2023-04-26T02:29:53.991Z,32.86
2023-04-26T02:30:53.978Z,32.89
2023-04-26T02:31:54.132Z,32.91
2023-04-26T02:32:54.128Z,32.91
2023-04-26T02:33:54.131Z,32.91
2023-04-26T02:34:54.207Z,32.91
2023-04-26T02:35:54.264Z,32.92
2023-04-26T02:36:54.339Z,32.97
2023-04-26T02:37:54.377Z,32.95
2023-04-26T02:38:54.701Z,32.98
2023-04-26T02:39:54.522Z,33.06
2023-04-26T02:40:54.579Z,33.04
2023-04-26T02:41:54.623Z,33.06
2023-04-26T02:42:54.689Z,33.05
2023-04-26T02:43:54.768Z,33.02
2023-04-26T02:44:54.857Z,33.01
2023-04-26T02:45:54.916Z,33.12
2023-04-26T02:46:54.997Z,33.10
2023-04-26T02:47:55.044Z,33.07
2023-04-26T02:48:55.205Z,33.16
2023-04-26T02:49:55.155Z,33.13
2023-04-26T02:50:55.227Z,33.14
2023-04-26T02:51:55.274Z,33.09
2023-04-26T02:52:55.325Z,33.05
2023-04-26T02:53:55.370Z,33.03
2023-04-26T02:54:55.430Z,33.06
2023-04-26T02:55:55.512Z,33.06
2023-04-26T02:56:55.543Z,33.09
2023-04-26T02:57:55.610Z,33.07
2023-04-26T02:58:55.664Z,33.05
2023-04-26T02:59:55.747Z,33.05
2023-04-26T03:00:55.798Z,33.10
2023-04-26T03:01:55.889Z,33.03
2023-04-26T03:02:56.099Z,33.09
2023-04-26T03:03:56.100Z,33.16
2023-04-26T03:04:56.030Z,33.14
2023-04-26T03:05:56.082Z,33.14
2023-04-26T03:06:56.126Z,33.16
2023-04-26T03:07:56.213Z,33.14
2023-04-26T03:08:56.273Z,33.20
2023-04-26T03:09:56.347Z,33.21
2023-04-26T03:10:56.382Z,33.25
2023-04-26T03:11:56.482Z,33.29
2023-04-26T03:12:56.500Z,33.24
2023-04-26T03:13:56.569Z,33.22
2023-04-26T03:14:56.691Z,33.22
2023-04-26T03:15:56.662Z,33.24
2023-04-26T03:16:56.856Z,33.26
2023-04-26T03:17:56.857Z,33.21
2023-04-26T03:18:56.884Z,33.28
2023-04-26T03:19:56.958Z,33.26
2023-04-26T03:20:56.994Z,33.24
2023-04-26T03:21:57.036Z,33.35
2023-04-26T03:22:57.119Z,33.32
2023-04-26T03:23:57.147Z,33.38
2023-04-26T03:24:57.205Z,33.42
2023-04-26T03:25:57.247Z,33.48
2023-04-26T03:26:57.261Z,33.49
2023-04-26T03:27:57.358Z,33.42
2023-04-26T03:28:57.333Z,33.44
2023-04-26T03:29:57.398Z,33.44
2023-04-26T03:30:57.399Z,33.50
2023-04-26T03:31:57.536Z,33.62
2023-04-26T03:32:57.499Z,33.56
2023-04-26T03:33:57.462Z,33.59
2023-04-26T03:34:57.532Z,33.62
2023-04-26T03:35:57.506Z,33.64
2023-04-26T03:36:57.551Z,33.59
2023-04-26T03:37:58.694Z,33.54
2023-04-26T03:38:57.606Z,33.63
2023-04-26T03:39:57.607Z,33.69
2023-04-26T03:40:57.591Z,33.69
2023-04-26T03:41:57.635Z,33.72
2023-04-26T03:42:57.664Z,33.69
2023-04-26T03:43:57.658Z,33.76
2023-04-26T03:44:57.649Z,33.74
2023-04-26T03:45:57.746Z,33.76
2023-04-26T03:46:57.745Z,33.76
2023-04-26T03:47:57.808Z,33.83
2023-04-26T03:48:57.835Z,33.79
2023-04-26T03:49:57.864Z,33.79
2023-04-26T03:50:57.887Z,33.79
2023-04-26T03:51:57.956Z,33.73
2023-04-26T03:52:57.999Z,33.76
2023-04-26T03:53:58.036Z,33.81
2023-04-26T03:54:58.054Z,33.77
2023-04-26T03:55:58.091Z,33.77
2023-04-26T03:56:58.099Z,33.81
2023-04-26T03:57:58.676Z,33.78
2023-04-26T03:58:58.163Z,33.79
2023-04-26T03:59:58.227Z,33.79
2023-04-26T04:00:58.240Z,33.75
2023-04-26T04:01:58.368Z,33.64
2023-04-26T04:02:58.411Z,33.62
2023-04-26T04:03:58.663Z,33.61
2023-04-26T04:04:58.538Z,33.61
2023-04-26T04:05:58.457Z,33.64
2023-04-26T04:06:58.462Z,33.57
2023-04-26T04:07:58.462Z,33.53
2023-04-26T04:08:58.508Z,33.51
2023-04-26T04:09:58.498Z,33.51
2023-04-26T04:10:58.512Z,33.51
2023-04-26T04:11:58.524Z,33.49
2023-04-26T04:12:58.521Z,33.49
2023-04-26T04:13:58.512Z,33.39
2023-04-26T04:14:58.494Z,33.49
2023-04-26T04:15:58.542Z,33.41
2023-04-26T04:16:58.493Z,33.47
2023-04-26T04:17:58.556Z,33.41
2023-04-26T04:18:58.503Z,33.46
2023-04-26T04:19:58.546Z,33.45
2023-04-26T04:20:58.469Z,33.48
2023-04-26T04:21:58.480Z,33.39
2023-04-26T04:22:58.496Z,33.34
2023-04-26T04:23:58.503Z,33.29
2023-04-26T04:24:58.508Z,33.26
2023-04-26T04:25:58.447Z,33.29
2023-04-26T04:26:58.481Z,33.22
2023-04-26T04:27:58.442Z,33.23
2023-04-26T04:28:58.480Z,33.23
2023-04-26T04:29:58.466Z,33.26
2023-04-26T04:30:58.502Z,33.19
2023-04-26T04:31:58.456Z,33.15
2023-04-26T04:32:58.468Z,33.09
2023-04-26T04:33:58.466Z,33.05
2023-04-26T04:34:58.463Z,33.02
2023-04-26T04:35:58.459Z,33.02
2023-04-26T04:36:58.457Z,33.01
2023-04-26T04:37:58.458Z,33.00
2023-04-26T04:38:58.441Z,32.94
2023-04-26T04:39:58.454Z,32.95
2023-04-26T04:40:58.445Z,32.88
2023-04-26T04:41:58.472Z,32.84
2023-04-26T04:42:58.410Z,32.84
2023-04-26T04:43:58.440Z,32.87
2023-04-26T04:44:58.439Z,32.84
2023-04-26T04:45:58.450Z,32.83
2023-04-26T04:46:58.469Z,32.74
2023-04-26T04:47:58.483Z,32.73
2023-04-26T04:48:58.442Z,32.84
2023-04-26T04:49:58.571Z,32.95
2023-04-26T04:50:58.532Z,33.12
2023-04-26T04:51:58.625Z,33.74
2023-04-26T04:52:58.656Z,34.31
2023-04-26T04:53:58.739Z,34.32
2023-04-26T04:54:58.808Z,34.45
2023-04-26T04:55:58.888Z,34.36
2023-04-26T04:56:58.918Z,34.29
2023-04-26T04:57:58.986Z,34.38
2023-04-26T04:58:59.079Z,34.39
2023-04-26T04:59:59.116Z,34.38
2023-04-26T05:00:59.163Z,34.44
2023-04-26T05:01:59.283Z,34.48
2023-04-26T05:02:59.324Z,34.56
2023-04-26T05:03:59.573Z,34.59
2023-04-26T05:04:59.462Z,34.51
2023-04-26T05:05:59.507Z,34.65
2023-04-26T05:06:59.527Z,34.64
2023-04-26T05:07:59.626Z,34.64
2023-04-26T05:08:59.685Z,34.74
2023-04-26T05:09:59.799Z,34.72
2023-04-26T05:10:59.785Z,34.88
2023-04-26T05:11:59.858Z,34.93
2023-04-26T05:12:59.920Z,34.88
2023-04-26T05:13:59.978Z,34.82
2023-04-26T05:15:00.088Z,34.79
2023-04-26T05:16:00.199Z,34.84
2023-04-26T05:17:00.176Z,34.90
2023-04-26T05:18:00.268Z,34.86
2023-04-26T05:19:00.289Z,34.86
2023-04-26T05:20:00.336Z,35.06
2023-04-26T05:21:00.399Z,35.07
2023-04-26T05:22:00.447Z,35.02
2023-04-26T05:23:00.510Z,34.94
2023-04-26T05:24:00.563Z,35.04
2023-04-26T05:25:00.665Z,35.19
2023-04-26T05:26:00.716Z,35.17
2023-04-26T05:27:00.809Z,35.04
2023-04-26T05:28:00.788Z,35.08
2023-04-26T05:29:00.879Z,35.10
2023-04-26T05:30:00.946Z,35.24
2023-04-26T05:31:01.000Z,35.31
2023-04-26T05:32:01.052Z,35.29
2023-04-26T05:33:01.197Z,35.23
2023-04-26T05:34:01.156Z,35.33
2023-04-26T05:35:01.204Z,35.34
2023-04-26T05:36:01.284Z,35.34
2023-04-26T05:37:01.324Z,35.57
2023-04-26T05:38:01.381Z,35.58
2023-04-26T05:39:01.431Z,35.73
2023-04-26T05:40:01.699Z,35.55
2023-04-26T05:41:01.518Z,35.49
2023-04-26T05:42:01.527Z,35.83
2023-04-26T05:43:01.553Z,35.85
2023-04-26T05:44:01.562Z,35.88
2023-04-26T05:45:01.696Z,36.26
2023-04-26T05:46:01.656Z,37.17
2023-04-26T05:47:01.639Z,36.97
2023-04-26T05:48:01.650Z,37.35
2023-04-26T05:49:01.645Z,38.35
2023-04-26T05:50:01.746Z,38.67
2023-04-26T05:51:01.646Z,38.77
2023-04-26T05:52:01.696Z,39.51
2023-04-26T05:53:01.695Z,39.09
2023-04-26T05:54:01.794Z,38.89
2023-04-26T05:55:01.674Z,38.91
2023-04-26T05:56:01.666Z,38.85
2023-04-26T05:57:01.728Z,38.84
2023-04-26T05:58:01.727Z,38.95
2023-04-26T05:59:01.762Z,38.77
2023-04-26T06:00:01.724Z,39.21
2023-04-26T06:01:01.742Z,39.07
2023-04-26T06:02:01.792Z,39.18
2023-04-26T06:03:01.973Z,39.01
2023-04-26T06:04:02.386Z,39.28
2023-04-26T06:05:02.125Z,39.54
2023-04-26T06:06:02.042Z,39.62
2023-04-26T06:07:01.991Z,39.88
2023-04-26T06:08:02.075Z,40.07
2023-04-26T06:09:02.099Z,40.05
2023-04-26T06:10:02.193Z,40.24
2023-04-26T06:11:02.181Z,40.41
2023-04-26T06:12:02.271Z,40.47
2023-04-26T06:13:02.249Z,40.46
2023-04-26T06:14:02.283Z,40.55
2023-04-26T06:15:02.353Z,40.58
2023-04-26T06:16:02.352Z,40.69
2023-04-26T06:17:02.374Z,40.59
2023-04-26T06:18:02.414Z,40.64
2023-04-26T06:19:02.423Z,40.51
2023-04-26T06:20:02.462Z,40.55
2023-04-26T06:21:02.418Z,40.52
2023-04-26T06:22:02.450Z,40.56
2023-04-26T06:23:02.483Z,40.51
2023-04-26T06:24:02.473Z,40.76
2023-04-26T06:25:02.477Z,40.72
2023-04-26T06:26:02.494Z,40.78
2023-04-26T06:27:02.464Z,40.60
2023-04-26T06:28:02.601Z,40.98
2023-04-26T06:29:02.488Z,41.00
2023-04-26T06:30:02.558Z,40.95
2023-04-26T06:31:02.521Z,40.80
2023-04-26T06:32:02.499Z,40.90
2023-04-26T06:33:02.509Z,41.00
2023-04-26T06:34:02.472Z,40.97
2023-04-26T06:35:02.476Z,40.94
2023-04-26T06:36:02.656Z,40.79
2023-04-26T06:37:02.499Z,40.54
2023-04-26T06:38:02.492Z,40.93
2023-04-26T06:39:02.503Z,40.62
2023-04-26T06:40:02.536Z,40.75
2023-04-26T06:41:02.483Z,41.19
2023-04-26T06:42:02.518Z,40.99
2023-04-26T06:43:02.541Z,41.07
2023-04-26T06:44:02.565Z,40.82
2023-04-26T06:45:02.594Z,41.03
2023-04-26T06:46:02.764Z,41.23
2023-04-26T06:47:02.635Z,41.41
2023-04-26T06:48:02.741Z,40.12
2023-04-26T06:49:02.726Z,40.92
2023-04-26T06:50:03.228Z,39.81
2023-04-26T06:51:02.767Z,40.09
2023-04-26T06:52:02.806Z,39.40
2023-04-26T06:53:02.791Z,39.16
2023-04-26T06:54:02.773Z,40.12
2023-04-26T06:55:02.787Z,40.12
2023-04-26T06:56:02.795Z,41.20
2023-04-26T06:57:02.768Z,41.67
2023-04-26T06:58:02.864Z,41.62
2023-04-26T06:59:02.818Z,41.95
2023-04-26T07:00:02.917Z,42.20
2023-04-26T07:01:02.980Z,42.42
2023-04-26T07:02:03.172Z,42.32
2023-04-26T07:03:03.140Z,42.23
2023-04-26T07:04:03.368Z,42.14
2023-04-26T07:05:03.393Z,42.30
2023-04-26T07:06:03.367Z,42.64
2023-04-26T07:07:03.220Z,42.48
2023-04-26T07:08:03.225Z,42.22
2023-04-26T07:09:03.239Z,42.62
2023-04-26T07:10:03.704Z,42.72
2023-04-26T07:11:03.201Z,42.95
2023-04-26T07:12:03.211Z,43.32
2023-04-26T07:13:03.212Z,43.73
2023-04-26T07:14:03.221Z,44.06
2023-04-26T07:15:03.190Z,44.19
2023-04-26T07:16:03.221Z,44.42
2023-04-26T07:17:03.208Z,44.67
2023-04-26T07:18:03.248Z,44.92
2023-04-26T07:19:03.274Z,44.88
2023-04-26T07:20:03.283Z,45.26
2023-04-26T07:21:03.336Z,45.10
2023-04-26T07:22:03.309Z,45.06
2023-04-26T07:23:03.369Z,45.43
2023-04-26T07:24:03.382Z,45.77
2023-04-26T07:25:03.398Z,45.86
2023-04-26T07:26:03.403Z,45.87
2023-04-26T07:27:03.411Z,46.25
2023-04-26T07:28:03.426Z,46.09
2023-04-26T07:29:03.412Z,46.07
2023-04-26T07:30:03.651Z,46.16
2023-04-26T07:31:03.459Z,47.13
2023-04-26T07:32:03.479Z,46.76
2023-04-26T07:33:03.558Z,46.27
2023-04-26T07:34:03.469Z,46.30
2023-04-26T07:35:03.473Z,46.03
2023-04-26T07:36:03.431Z,46.10
2023-04-26T07:37:03.449Z,46.29
2023-04-26T07:38:03.469Z,46.20
2023-04-26T07:39:03.465Z,46.85
2023-04-26T07:40:03.448Z,46.72
2023-04-26T07:41:03.476Z,46.78
2023-04-26T07:42:03.452Z,47.19
2023-04-26T07:43:03.457Z,46.86
2023-04-26T07:44:03.477Z,46.89
2023-04-26T07:45:03.490Z,46.65
2023-04-26T07:46:03.639Z,46.66
2023-04-26T07:47:03.472Z,46.44
2023-04-26T07:48:03.544Z,46.32
2023-04-26T07:49:03.466Z,46.31
2023-04-26T07:50:03.519Z,46.21
2023-04-26T07:51:03.504Z,46.20
2023-04-26T07:52:03.516Z,46.30
2023-04-26T07:53:03.581Z,46.30
2023-04-26T07:54:03.512Z,46.36
2023-04-26T07:55:03.564Z,46.43
2023-04-26T07:56:03.583Z,46.50
2023-04-26T07:57:03.614Z,46.44
2023-04-26T07:58:03.628Z,46.57
2023-04-26T07:59:03.645Z,46.48
2023-04-26T08:00:03.654Z,46.40
2023-04-26T08:01:03.760Z,46.55
2023-04-26T08:02:03.817Z,46.61
2023-04-26T08:03:03.947Z,46.63
2023-04-26T08:04:03.966Z,46.69
2023-04-26T08:05:04.036Z,46.78
2023-04-26T08:06:04.121Z,46.87
2023-04-26T08:07:03.895Z,46.88
2023-04-26T08:08:03.882Z,46.99
2023-04-26T08:09:03.929Z,47.14
2023-04-26T08:10:04.271Z,47.15
2023-04-26T08:11:04.027Z,47.15
2023-04-26T08:12:04.099Z,47.25
2023-04-26T08:13:04.058Z,47.31
2023-04-26T08:14:04.097Z,47.29
2023-04-26T08:15:04.099Z,47.29
2023-04-26T08:16:04.132Z,47.24
2023-04-26T08:17:04.202Z,47.27
2023-04-26T08:18:04.270Z,47.22
2023-04-26T08:19:04.219Z,47.22
2023-04-26T08:20:04.277Z,47.12
2023-04-26T08:21:04.290Z,47.06
2023-04-26T08:22:04.329Z,46.94
2023-04-26T08:23:04.353Z,46.86
2023-04-26T08:24:04.398Z,46.84
2023-04-26T08:25:04.415Z,46.87
2023-04-26T08:26:04.443Z,46.91
2023-04-26T08:27:04.487Z,46.94
2023-04-26T08:28:04.560Z,46.88
2023-04-26T08:29:04.546Z,46.94
2023-04-26T08:30:04.582Z,46.96
2023-04-26T08:31:04.635Z,47.03
2023-04-26T08:32:04.647Z,47.11
2023-04-26T08:33:04.682Z,47.11
2023-04-26T08:34:04.702Z,47.03
2023-04-26T08:35:04.770Z,46.96
2023-04-26T08:36:04.741Z,46.96
2023-04-26T08:37:04.844Z,46.88
2023-04-26T08:38:04.866Z,46.87
2023-04-26T08:39:04.900Z,46.84
2023-04-26T08:40:05.284Z,46.80
2023-04-26T08:41:04.932Z,46.91
2023-04-26T08:42:04.958Z,46.89
2023-04-26T08:43:05.003Z,47.03
2023-04-26T08:44:05.038Z,47.08
2023-04-26T08:45:05.081Z,47.17
2023-04-26T08:46:05.186Z,47.21
2023-04-26T08:47:05.183Z,47.23
2023-04-26T08:48:05.174Z,47.17
2023-04-26T08:49:05.192Z,47.22
2023-04-26T08:50:05.247Z,47.17
2023-04-26T08:51:05.750Z,47.26
2023-04-26T08:52:05.269Z,47.32
2023-04-26T08:53:05.317Z,47.44
2023-04-26T08:54:05.372Z,47.50
2023-04-26T08:55:05.387Z,47.54
2023-04-26T08:56:05.753Z,47.56
2023-04-26T08:57:05.471Z,47.53
2023-04-26T08:58:05.496Z,47.43
2023-04-26T08:59:05.530Z,47.38
2023-04-26T09:00:05.664Z,47.22
2023-04-26T09:01:05.581Z,47.14
2023-04-26T09:02:05.690Z,47.13
2023-04-26T09:03:05.756Z,47.15
2023-04-26T09:04:05.817Z,47.15
2023-04-26T09:05:05.797Z,47.18
2023-04-26T09:06:05.874Z,47.22
2023-04-26T09:07:05.757Z,47.23
2023-04-26T09:08:05.801Z,47.33
2023-04-26T09:09:05.857Z,47.34
2023-04-26T09:10:05.862Z,47.39
2023-04-26T09:11:05.906Z,47.46
2023-04-26T09:12:05.931Z,47.52
2023-04-26T09:13:05.960Z,47.59
2023-04-26T09:14:05.968Z,47.55
2023-04-26T09:15:06.013Z,47.69
2023-04-26T09:16:06.084Z,47.66
2023-04-26T09:17:06.048Z,47.72
2023-04-26T09:18:06.141Z,47.60
2023-04-26T09:19:06.132Z,47.59
2023-04-26T09:20:07.986Z,47.60
2023-04-26T09:21:06.179Z,47.62
2023-04-26T09:22:06.258Z,47.71
2023-04-26T09:23:06.211Z,47.64
2023-04-26T09:24:06.284Z,47.56
2023-04-26T09:25:06.250Z,47.54
2023-04-26T09:26:06.271Z,47.51
2023-04-26T09:27:06.297Z,47.39
2023-04-26T09:28:06.372Z,47.30
2023-04-26T09:29:06.362Z,47.30
2023-04-26T09:30:06.358Z,47.28
2023-04-26T09:31:06.426Z,47.29
2023-04-26T09:32:06.414Z,47.26
2023-04-26T09:33:06.532Z,47.22
2023-04-26T09:34:06.460Z,47.62
2023-04-26T09:35:06.514Z,48.02
2023-04-26T09:36:06.535Z,47.79
2023-04-26T09:37:06.548Z,48.68
2023-04-26T09:38:11.738Z,48.36
2023-04-26T09:39:07.560Z,47.87
2023-04-26T09:40:06.581Z,48.09
2023-04-26T09:41:06.790Z,48.65
2023-04-26T09:42:06.540Z,48.46
2023-04-26T09:43:06.544Z,48.77
2023-04-26T09:44:06.570Z,48.99
2023-04-26T09:45:06.521Z,49.35
2023-04-26T09:46:06.781Z,48.62
2023-04-26T09:47:06.592Z,48.34
2023-04-26T09:48:06.609Z,47.99
2023-04-26T09:49:06.510Z,47.86
2023-04-26T09:50:06.494Z,47.74
2023-04-26T09:51:06.442Z,47.69
2023-04-26T09:52:06.433Z,47.66
2023-04-26T09:53:06.454Z,47.66
2023-04-26T09:54:06.480Z,47.63
2023-04-26T09:55:06.446Z,47.66
2023-04-26T09:56:06.441Z,47.64
2023-04-26T09:57:06.414Z,47.58
2023-04-26T09:58:06.415Z,47.50
2023-04-26T09:59:06.431Z,47.40
2023-04-26T10:00:06.419Z,47.24
2023-04-26T10:01:06.430Z,47.13
2023-04-26T10:02:06.402Z,47.22
2023-04-26T10:03:06.460Z,47.11
2023-04-26T10:04:06.451Z,47.01
2023-04-26T10:05:06.358Z,47.07
2023-04-26T10:06:06.368Z,47.23
2023-04-26T10:07:06.345Z,47.18
2023-04-26T10:08:06.344Z,47.17
2023-04-26T10:09:06.338Z,47.08
2023-04-26T10:10:06.328Z,47.03
2023-04-26T10:11:06.346Z,47.07
2023-04-26T10:12:06.334Z,47.06
2023-04-26T10:13:06.302Z,47.13
2023-04-26T10:14:06.301Z,47.26
2023-04-26T10:15:06.331Z,47.31
2023-04-26T10:16:06.332Z,47.32
2023-04-26T10:17:06.319Z,47.32
2023-04-26T10:18:06.376Z,47.32
2023-04-26T10:19:06.295Z,47.22
2023-04-26T10:20:06.258Z,47.26
2023-04-26T10:21:06.295Z,47.11
2023-04-26T10:22:06.240Z,47.06
2023-04-26T10:23:06.279Z,47.12
2023-04-26T10:24:06.232Z,47.08
2023-04-26T10:25:06.261Z,47.03
2023-04-26T10:26:06.265Z,46.98
2023-04-26T10:27:06.230Z,46.90
2023-04-26T10:28:06.238Z,46.65
2023-04-26T10:29:06.474Z,46.67
2023-04-26T10:30:06.211Z,46.67
2023-04-26T10:31:06.261Z,46.58
2023-04-26T10:32:06.342Z,46.61
2023-04-26T10:33:06.329Z,46.64
2023-04-26T10:34:06.277Z,46.68
2023-04-26T10:35:06.283Z,46.69
2023-04-26T10:36:06.320Z,46.68
2023-04-26T10:37:06.299Z,46.84
2023-04-26T10:38:06.298Z,46.80
2023-04-26T10:39:06.314Z,46.89
2023-04-26T10:40:06.296Z,47.00
2023-04-26T10:41:06.359Z,46.87
2023-04-26T10:42:06.450Z,46.80
2023-04-26T10:43:06.341Z,46.64
2023-04-26T10:44:06.386Z,46.55
2023-04-26T10:45:06.366Z,46.46
2023-04-26T10:46:06.395Z,46.39
2023-04-26T10:47:06.344Z,46.33
2023-04-26T10:48:06.400Z,46.22
2023-04-26T10:49:06.365Z,46.11
2023-04-26T10:50:06.499Z,46.01
2023-04-26T10:51:06.324Z,45.99
2023-04-26T10:52:06.356Z,45.97
2023-04-26T10:53:06.328Z,45.99
2023-04-26T10:54:06.340Z,45.94
2023-04-26T10:55:06.398Z,45.92
2023-04-26T10:56:06.332Z,45.88
2023-04-26T10:57:06.376Z,45.97
2023-04-26T10:58:06.354Z,45.98
2023-04-26T10:59:13.619Z,46.02
2023-04-26T11:00:07.326Z,46.05
2023-04-26T11:01:06.412Z,46.15
2023-04-26T11:02:06.327Z,46.17
2023-04-26T11:03:06.464Z,46.17
2023-04-26T11:04:06.375Z,46.21
2023-04-26T11:05:06.346Z,46.18
2023-04-26T11:06:06.266Z,46.19
2023-04-26T11:07:06.239Z,46.17
2023-04-26T11:08:06.269Z,46.10
2023-04-26T11:09:06.254Z,45.99
2023-04-26T11:10:06.263Z,45.86
2023-04-26T11:11:06.282Z,45.69
2023-04-26T11:12:06.265Z,45.60
2023-04-26T11:13:06.221Z,45.47
2023-04-26T11:14:06.234Z,45.16
2023-04-26T11:15:06.222Z,45.00
2023-04-26T11:16:06.334Z,44.88
2023-04-26T11:17:06.215Z,44.61
2023-04-26T11:18:06.290Z,44.15
2023-04-26T11:19:06.186Z,44.00
2023-04-26T11:20:06.201Z,43.78
2023-04-26T11:21:06.153Z,43.78
2023-04-26T11:22:06.163Z,43.83
2023-04-26T11:23:06.142Z,43.80
2023-04-26T11:24:06.162Z,43.91
2023-04-26T11:25:06.140Z,43.93
2023-04-26T11:26:06.290Z,43.97
2023-04-26T11:27:06.148Z,43.99
2023-04-26T11:28:06.174Z,44.02
2023-04-26T11:29:06.151Z,44.09
2023-04-26T11:30:06.114Z,44.08
2023-04-26T11:31:06.364Z,44.04
2023-04-26T11:32:06.149Z,43.96
2023-04-26T11:33:06.103Z,43.87
2023-04-26T11:34:06.103Z,44.03
2023-04-26T11:35:06.097Z,44.11
2023-04-26T11:36:06.096Z,44.10
2023-04-26T11:37:06.056Z,44.11
2023-04-26T11:38:06.054Z,44.09
2023-04-26T11:39:06.049Z,44.13
2023-04-26T11:40:06.058Z,44.40
2023-04-26T11:41:06.048Z,44.36
2023-04-26T11:42:06.033Z,44.31
2023-04-26T11:43:06.028Z,44.28
2023-04-26T11:44:06.038Z,44.31
2023-04-26T11:45:06.008Z,44.35
2023-04-26T11:46:06.099Z,44.38
2023-04-26T11:47:06.116Z,44.36
2023-04-26T11:48:06.090Z,44.37
2023-04-26T11:49:05.978Z,44.35
2023-04-26T11:50:05.981Z,44.31
2023-04-26T11:51:06.036Z,44.33
2023-04-26T11:52:05.962Z,44.31
2023-04-26T11:53:05.969Z,44.36
2023-04-26T11:54:05.969Z,44.43
2023-04-26T11:55:05.973Z,44.45
2023-04-26T11:56:05.930Z,44.43
2023-04-26T11:57:05.933Z,44.54
2023-04-26T11:58:05.928Z,44.60
2023-04-26T11:59:05.936Z,44.58
2023-04-26T12:00:05.943Z,44.63
2023-04-26T12:01:05.886Z,44.59
2023-04-26T12:02:06.023Z,44.52
2023-04-26T12:03:06.122Z,44.46
2023-04-26T12:04:06.001Z,44.40
2023-04-26T12:05:05.988Z,44.39
2023-04-26T12:06:05.880Z,44.45
2023-04-26T12:07:05.873Z,44.54
2023-04-26T12:08:05.850Z,44.58
2023-04-26T12:09:05.898Z,44.63
2023-04-26T12:10:05.852Z,44.73
2023-04-26T12:11:05.855Z,44.76
2023-04-26T12:12:05.819Z,44.83
2023-04-26T12:13:05.837Z,44.85
2023-04-26T12:14:05.844Z,44.88
2023-04-26T12:15:05.815Z,44.85
2023-04-26T12:16:12.289Z,44.83
2023-04-26T12:17:06.870Z,44.84
2023-04-26T12:18:05.921Z,44.85
2023-04-26T12:19:05.823Z,44.83
2023-04-26T12:20:05.795Z,44.85
2023-04-26T12:21:05.773Z,44.89
2023-04-26T12:22:05.748Z,44.89
2023-04-26T12:23:05.770Z,44.98
2023-04-26T12:24:05.756Z,45.05
2023-04-26T12:25:05.734Z,45.11
2023-04-26T12:26:05.745Z,45.13
2023-04-26T12:27:05.749Z,45.12
2023-04-26T12:28:05.729Z,45.10
2023-04-26T12:29:05.717Z,45.14
2023-04-26T12:30:05.715Z,45.09
2023-04-26T12:31:05.720Z,45.09
2023-04-26T12:32:05.736Z,45.10
2023-04-26T12:33:15.411Z,45.12
2023-04-26T12:34:06.719Z,45.10
2023-04-26T12:35:05.680Z,45.15
2023-04-26T12:36:05.688Z,45.18
2023-04-26T12:37:05.665Z,45.18
2023-04-26T12:38:05.660Z,45.21
2023-04-26T12:39:05.663Z,45.23
2023-04-26T12:40:05.635Z,45.20
2023-04-26T12:41:05.645Z,45.26
2023-04-26T12:42:05.629Z,45.17
2023-04-26T12:43:05.636Z,45.16
2023-04-26T12:44:05.604Z,45.14
2023-04-26T12:45:05.643Z,45.19
2023-04-26T12:46:05.736Z,45.16
2023-04-26T12:47:05.683Z,45.03
2023-04-26T12:48:05.760Z,44.96
2023-04-26T12:49:05.702Z,44.89
2023-04-26T12:50:05.747Z,44.90
2023-04-26T12:51:05.774Z,44.92
2023-04-26T12:52:05.821Z,44.86
2023-04-26T12:53:05.876Z,44.93